Time;durP1;ratioP1;P1;durP2;ratioP2;P2;SDS_P1;SDS_P2;PMS_P1;PMS_P2;Temp;Humidity;BMP_temperature;BMP_pressure;BME280_temperature;BME280_humidity;BME280_pressure;Samples;Min_cycle;Max_cycle;Signal;HPM_P1;HPM_P2
2024/01/03 00:00:29;;;;;;;27.47;13.20;;;3.80;99.90;;;;;;5033326;28;20257;-74
2024/01/03 00:03:17;;;;;;;31.83;14.43;;;3.80;99.90;;;;;;5030584;28;20192;-75
2024/01/03 00:06:05;;;;;;;27.77;13.53;;;3.80;99.90;;;;;;5029827;28;20592;-74
2024/01/03 00:08:53;;;;;;;29.07;14.77;;;3.70;99.90;;;;;;5029841;28;20282;-73
2024/01/03 00:11:40;;;;;;;27.07;14.07;;;3.80;99.90;;;;;;5031114;28;20688;-75
2024/01/03 00:14:33;;;;;;;27.83;14.17;;;3.70;99.90;;;;;;5032109;28;20224;-74
2024/01/03 00:17:21;;;;;;;26.97;14.33;;;3.80;99.90;;;;;;5031559;28;20219;-74
2024/01/03 00:20:09;;;;;;;26.43;14.13;;;3.80;99.90;;;;;;5032151;28;20223;-74
2024/01/03 00:22:56;;;;;;;26.37;13.97;;;3.70;99.90;;;;;;5032154;28;20572;-74
2024/01/03 00:25:44;;;;;;;30.43;14.03;;;3.80;99.90;;;;;;5031936;28;20286;-74
2024/01/03 00:28:32;;;;;;;27.60;13.97;;;3.90;99.90;;;;;;5031956;28;20193;-74
2024/01/03 00:31:29;;;;;;;25.67;13.70;;;3.80;99.90;;;;;;5030869;28;20565;-75
2024/01/03 00:34:22;;;;;;;28.43;13.80;;;3.80;99.90;;;;;;5031567;28;20212;-75
2024/01/03 00:37:28;;;;;;;28.23;13.83;;;3.80;99.90;;;;;;5032983;28;20202;-76
2024/01/03 00:40:33;;;;;;;27.23;14.27;;;3.90;99.90;;;;;;5032889;28;20210;-74
2024/01/03 00:43:21;;;;;;;29.20;13.30;;;3.80;99.90;;;;;;5031896;28;20196;-75
2024/01/03 00:46:10;;;;;;;33.57;15.50;;;3.80;99.90;;;;;;5033009;28;20204;-74
2024/01/03 00:48:57;;;;;;;30.00;15.20;;;3.80;99.90;;;;;;5031341;28;20241;-74
2024/01/03 00:51:48;;;;;;;27.00;14.33;;;3.70;99.90;;;;;;5031273;28;20571;-75
2024/01/03 00:54:37;;;;;;;29.27;14.47;;;3.80;99.90;;;;;;5031305;28;20604;-75
2024/01/03 00:57:24;;;;;;;27.50;14.93;;;3.90;99.90;;;;;;5017529;28;20306;-74
2024/01/03 01:00:13;;;;;;;32.50;15.27;;;3.90;99.90;;;;;;5031810;28;20284;-75
2024/01/03 01:03:00;;;;;;;29.80;14.90;;;3.80;99.90;;;;;;5030697;28;20269;-74
2024/01/03 01:05:47;;;;;;;29.97;13.73;;;3.80;99.90;;;;;;5031481;28;20310;-75
2024/01/03 01:08:36;;;;;;;33.73;15.53;;;3.80;99.90;;;;;;5029085;28;20201;-75
2024/01/03 01:11:23;;;;;;;30.17;14.87;;;3.80;99.90;;;;;;5030962;28;20240;-74
2024/01/03 01:14:11;;;;;;;27.87;14.10;;;3.70;99.90;;;;;;5029923;28;20187;-74
2024/01/03 01:16:58;;;;;;;29.67;14.83;;;3.80;99.90;;;;;;5033259;28;20559;-74
2024/01/03 01:19:45;;;;;;;29.53;14.90;;;3.80;99.90;;;;;;5035114;28;20672;-75
2024/01/03 01:22:33;;;;;;;29.07;14.53;;;3.80;99.90;;;;;;5034770;28;20667;-75
2024/01/03 01:25:20;;;;;;;27.27;14.73;;;3.80;99.90;;;;;;5035031;28;20577;-74
2024/01/03 01:28:08;;;;;;;27.17;14.53;;;3.70;99.90;;;;;;5035010;28;20613;-73
2024/01/03 01:30:55;;;;;;;29.33;15.10;;;3.80;99.90;;;;;;5034387;28;20214;-75
2024/01/03 01:33:43;;;;;;;33.23;15.67;;;3.80;99.90;;;;;;5034213;28;20197;-74
2024/01/03 01:36:30;;;;;;;29.17;14.87;;;3.80;99.90;;;;;;5033813;28;20221;-74
2024/01/03 01:39:18;;;;;;;26.87;14.57;;;3.80;99.90;;;;;;5034134;28;20561;-74
2024/01/03 01:42:05;;;;;;;29.23;15.67;;;3.80;99.90;;;;;;5034734;28;20213;-74
2024/01/03 01:44:52;;;;;;;28.53;15.50;;;3.80;99.90;;;;;;5034731;28;20644;-74
2024/01/03 01:47:43;;;;;;;28.77;15.37;;;3.80;99.90;;;;;;5033403;28;20691;-74
2024/01/03 01:50:31;;;;;;;31.30;15.30;;;3.80;99.90;;;;;;5033568;28;20219;-74
2024/01/03 01:53:19;;;;;;;33.97;15.23;;;3.80;99.90;;;;;;5035648;28;20203;-74
2024/01/03 01:56:09;;;;;;;29.70;15.07;;;3.80;99.90;;;;;;5033861;28;20231;-74
2024/01/03 01:58:57;;;;;;;29.13;14.57;;;3.90;99.90;;;;;;5032752;28;20568;-75
2024/01/03 02:01:44;;;;;;;27.03;14.80;;;3.90;99.90;;;;;;5035770;28;20568;-74
2024/01/03 02:04:36;;;;;;;27.47;14.33;;;3.80;99.90;;;;;;5033824;28;20208;-75
2024/01/03 02:07:25;;;;;;;29.13;15.27;;;3.90;99.90;;;;;;5034182;28;20200;-75
2024/01/03 02:10:12;;;;;;;29.17;14.43;;;3.90;99.90;;;;;;5033238;28;20287;-74
2024/01/03 02:12:59;;;;;;;27.37;14.30;;;3.90;99.90;;;;;;5033638;28;20273;-73
2024/01/03 02:15:47;;;;;;;26.40;14.33;;;3.90;99.90;;;;;;5033059;28;20227;-74
2024/01/03 02:18:35;;;;;;;29.87;14.47;;;3.90;99.90;;;;;;5032982;28;20203;-74
2024/01/03 02:21:23;;;;;;;26.33;14.20;;;3.90;99.90;;;;;;5033965;28;20263;-75
2024/01/03 02:24:11;;;;;;;27.20;14.23;;;3.90;99.90;;;;;;5032310;28;20192;-74
2024/01/03 02:26:58;;;;;;;30.13;14.87;;;3.90;99.90;;;;;;5033328;28;20298;-75
2024/01/03 02:29:45;;;;;;;26.77;13.73;;;3.80;99.90;;;;;;5032264;28;20195;-74
2024/01/03 02:32:33;;;;;;;27.93;14.43;;;3.80;99.90;;;;;;5032628;28;20637;-74
2024/01/03 02:35:20;;;;;;;29.37;15.10;;;3.90;99.90;;;;;;5032643;28;20215;-73
2024/01/03 02:38:08;;;;;;;27.40;14.20;;;3.80;99.90;;;;;;5032068;28;20577;-74
2024/01/03 02:40:56;;;;;;;26.63;14.30;;;3.80;99.90;;;;;;5033600;28;20217;-76
2024/01/03 02:43:44;;;;;;;29.03;14.60;;;3.90;99.90;;;;;;5032618;28;20199;-76
2024/01/03 02:46:31;;;;;;;27.93;14.37;;;3.90;99.90;;;;;;5032539;28;20198;-76
2024/01/03 02:49:18;;;;;;;26.50;13.60;;;3.90;99.90;;;;;;5033658;28;20195;-77
2024/01/03 02:52:06;;;;;;;28.93;13.73;;;3.80;99.90;;;;;;5032992;28;20200;-77
2024/01/03 02:54:54;;;;;;;24.80;13.93;;;3.80;99.90;;;;;;5032922;28;20732;-77
2024/01/03 02:57:41;;;;;;;25.93;13.87;;;3.90;99.90;;;;;;5033724;28;20207;-77
2024/01/03 03:00:29;;;;;;;25.07;13.13;;;3.90;99.90;;;;;;5033953;28;20195;-76
2024/01/03 03:03:16;;;;;;;27.40;13.73;;;3.90;99.90;;;;;;5032980;28;20203;-76
2024/01/03 03:06:04;;;;;;;23.50;12.53;;;3.90;99.90;;;;;;5031185;28;20235;-77
2024/01/03 03:08:52;;;;;;;23.90;13.23;;;3.90;99.90;;;;;;5032621;28;20191;-77
2024/01/03 03:11:59;;;;;;;24.73;13.47;;;3.90;99.90;;;;;;5033135;28;20211;-76
2024/01/03 03:14:47;;;;;;;25.40;13.33;;;4.00;99.90;;;;;;5033199;28;20279;-76
2024/01/03 03:17:34;;;;;;;24.83;13.07;;;3.90;99.90;;;;;;5032509;28;20199;-75
2024/01/03 03:20:22;;;;;;;25.33;13.03;;;3.90;99.90;;;;;;5032622;28;20199;-76
2024/01/03 03:23:09;;;;;;;22.10;12.23;;;3.90;99.90;;;;;;5032397;28;20206;-77
2024/01/03 03:25:56;;;;;;;22.87;12.90;;;3.90;99.90;;;;;;5033258;28;20222;-79
2024/01/03 03:28:44;;;;;;;24.50;12.00;;;3.90;99.90;;;;;;5032379;28;20199;-78
2024/01/03 03:31:31;;;;;;;25.27;12.63;;;3.90;99.90;;;;;;5031385;28;20279;-78
2024/01/03 03:34:19;;;;;;;26.20;12.53;;;3.90;99.90;;;;;;5033019;28;20203;-78
2024/01/03 03:37:06;;;;;;;22.10;11.90;;;4.00;99.90;;;;;;5031848;28;20324;-78
2024/01/03 03:39:54;;;;;;;22.87;12.60;;;4.00;99.90;;;;;;5031864;28;20200;-78
2024/01/03 03:42:46;;;;;;;20.60;12.47;;;4.00;99.90;;;;;;5032408;28;20294;-78
2024/01/03 03:45:33;;;;;;;23.23;12.80;;;4.00;99.90;;;;;;5034441;28;20188;-78
2024/01/03 03:48:20;;;;;;;20.73;11.67;;;4.00;99.90;;;;;;5032999;28;20199;-78
2024/01/03 03:51:08;;;;;;;22.80;12.53;;;4.00;99.90;;;;;;5032422;28;20219;-78
2024/01/03 03:53:55;;;;;;;20.50;11.47;;;4.00;99.90;;;;;;5045492;28;20203;-79
2024/01/03 03:56:43;;;;;;;22.30;12.13;;;4.00;99.90;;;;;;5031928;28;20227;-78
2024/01/03 03:59:30;;;;;;;22.53;12.03;;;4.00;99.90;;;;;;5030975;28;20200;-78
2024/01/03 04:02:17;;;;;;;20.03;11.23;;;4.00;99.90;;;;;;5032033;28;20613;-78
2024/01/03 04:05:05;;;;;;;22.70;12.40;;;4.00;99.90;;;;;;5031923;28;20202;-78
2024/01/03 04:07:53;;;;;;;20.50;11.33;;;4.10;99.90;;;;;;5031490;28;20185;-79
2024/01/03 04:10:40;;;;;;;21.07;11.93;;;4.00;99.90;;;;;;5031657;28;20199;-78
2024/01/03 04:13:29;;;;;;;22.10;11.80;;;4.10;99.90;;;;;;5032388;28;20264;-77
2024/01/03 04:16:16;;;;;;;21.73;11.90;;;4.20;99.90;;;;;;5032790;28;20215;-79
2024/01/03 04:19:04;;;;;;;21.90;11.40;;;4.10;99.90;;;;;;5032351;28;20205;-78
2024/01/03 04:21:51;;;;;;;20.30;11.57;;;4.10;99.90;;;;;;5031982;28;20200;-77
2024/01/03 04:24:39;;;;;;;23.57;11.63;;;4.10;99.90;;;;;;5032299;28;20276;-78
2024/01/03 04:27:26;;;;;;;20.63;11.50;;;4.10;99.90;;;;;;5031331;28;20224;-77
2024/01/03 04:30:13;;;;;;;22.77;12.30;;;4.10;99.90;;;;;;5030674;28;20196;-78
2024/01/03 04:33:01;;;;;;;21.87;11.97;;;4.20;99.90;;;;;;5030692;28;20189;-78
2024/01/03 04:35:48;;;;;;;19.10;11.13;;;4.10;99.90;;;;;;5032329;28;20814;-78
2024/01/03 04:38:36;;;;;;;20.87;12.20;;;4.10;99.90;;;;;;5033398;28;20199;-78
2024/01/03 04:41:23;;;;;;;20.07;10.70;;;4.10;99.90;;;;;;5030582;28;20208;-77
2024/01/03 04:44:11;;;;;;;19.13;11.63;;;4.10;99.90;;;;;;5030774;28;20663;-78
2024/01/03 04:46:58;;;;;;;21.53;11.73;;;4.20;99.90;;;;;;5017659;28;20196;-77
2024/01/03 04:49:45;;;;;;;19.87;11.20;;;4.20;99.90;;;;;;5033172;28;20196;-77
2024/01/03 04:52:33;;;;;;;19.37;10.83;;;4.20;99.90;;;;;;5034899;28;20275;-78
2024/01/03 04:55:20;;;;;;;20.13;10.60;;;4.10;99.90;;;;;;5036053;28;20724;-78
2024/01/03 04:58:08;;;;;;;16.10;10.50;;;4.10;99.90;;;;;;5034919;28;20231;-78
2024/01/03 05:00:56;;;;;;;19.50;11.13;;;4.10;99.90;;;;;;5035795;28;20199;-78
2024/01/03 05:03:43;;;;;;;19.13;10.87;;;4.20;99.90;;;;;;5035751;28;20668;-79
2024/01/03 05:06:32;;;;;;;16.17;10.17;;;4.20;99.90;;;;;;5035413;28;20231;-78
2024/01/03 05:09:19;;;;;;;17.20;10.10;;;4.20;99.90;;;;;;5036158;28;20593;-79
2024/01/03 05:12:06;;;;;;;18.60;10.37;;;4.10;99.90;;;;;;5035777;28;20324;-79
2024/01/03 05:14:54;;;;;;;16.40;10.40;;;4.10;99.90;;;;;;5035200;28;20195;-79
2024/01/03 05:17:41;;;;;;;17.73;10.20;;;4.10;99.90;;;;;;5035493;28;20249;-78
2024/01/03 05:20:29;;;;;;;17.87;10.03;;;4.20;99.90;;;;;;5035174;28;20196;-78
2024/01/03 05:23:17;;;;;;;18.30;10.03;;;4.10;99.90;;;;;;5033808;28;20196;-78
2024/01/03 05:26:04;;;;;;;17.23;10.10;;;4.10;99.90;;;;;;5034402;28;20284;-78
2024/01/03 05:28:52;;;;;;;18.07;9.97;;;4.20;99.90;;;;;;5034962;28;20249;-78
2024/01/03 05:31:39;;;;;;;18.37;10.33;;;4.10;99.90;;;;;;5035318;28;20199;-78
2024/01/03 05:34:26;;;;;;;17.27;10.67;;;4.10;99.90;;;;;;5034968;28;20281;-79
2024/01/03 05:37:14;;;;;;;17.93;10.43;;;4.10;99.90;;;;;;5034689;28;20680;-78
2024/01/03 05:40:01;;;;;;;18.17;10.70;;;4.10;99.90;;;;;;5035106;28;20192;-78
2024/01/03 05:42:49;;;;;;;16.33;9.90;;;4.10;99.90;;;;;;5034664;28;20573;-79
2024/01/03 05:45:37;;;;;;;17.27;10.03;;;4.10;99.90;;;;;;5035086;28;20666;-77
2024/01/03 05:48:24;;;;;;;17.07;10.47;;;4.10;99.90;;;;;;5033542;28;20197;-78
2024/01/03 05:51:12;;;;;;;16.17;9.60;;;4.10;99.90;;;;;;5034919;28;20192;-78
2024/01/03 05:54:00;;;;;;;18.23;10.40;;;4.10;99.90;;;;;;5033898;28;20203;-78
2024/01/03 05:56:47;;;;;;;22.50;11.13;;;4.10;99.90;;;;;;5033140;28;20227;-79
2024/01/03 05:59:35;;;;;;;20.40;11.03;;;4.20;99.90;;;;;;5034213;28;20193;-78
2024/01/03 06:02:23;;;;;;;15.63;10.00;;;4.30;99.90;;;;;;5032674;28;20722;-78
2024/01/03 06:05:12;;;;;;;18.00;10.37;;;4.30;99.90;;;;;;5032993;28;20276;-78
2024/01/03 06:08:00;;;;;;;19.20;11.53;;;4.20;99.90;;;;;;5034134;28;20674;-77
2024/01/03 06:10:47;;;;;;;17.40;10.87;;;4.30;99.90;;;;;;5033908;28;20199;-78
2024/01/03 06:13:34;;;;;;;18.43;11.03;;;4.30;99.90;;;;;;5034014;28;20242;-78
2024/01/03 06:16:22;;;;;;;17.20;10.33;;;4.30;99.90;;;;;;5033816;28;20219;-78
2024/01/03 06:19:09;;;;;;;18.07;10.37;;;4.30;99.90;;;;;;5034162;28;20200;-78
2024/01/03 06:21:57;;;;;;;17.33;11.13;;;4.30;99.90;;;;;;5034281;28;20199;-78
2024/01/03 06:24:44;;;;;;;17.70;10.90;;;4.30;99.90;;;;;;5034316;28;20545;-78
2024/01/03 06:27:32;;;;;;;17.27;11.03;;;4.30;99.90;;;;;;5033238;28;20222;-78
2024/01/03 06:30:19;;;;;;;18.40;10.93;;;4.30;99.90;;;;;;5033947;28;20576;-79
2024/01/03 06:33:07;;;;;;;17.53;10.87;;;4.30;99.90;;;;;;5033545;28;20211;-78
2024/01/03 06:35:54;;;;;;;19.40;10.90;;;4.30;99.90;;;;;;5033477;28;20222;-79
2024/01/03 06:38:42;;;;;;;17.83;11.10;;;4.40;99.90;;;;;;5041110;28;20211;-78
2024/01/03 06:41:29;;;;;;;19.70;11.20;;;4.30;99.90;;;;;;5041260;28;20682;-77
2024/01/03 06:44:17;;;;;;;18.87;11.80;;;4.30;99.90;;;;;;5040773;28;20201;-77
2024/01/03 06:47:04;;;;;;;20.53;11.77;;;4.40;99.90;;;;;;5039172;28;20210;-78
2024/01/03 06:49:52;;;;;;;19.63;11.47;;;4.30;99.90;;;;;;5033362;28;20238;-78
2024/01/03 06:52:39;;;;;;;19.63;11.60;;;4.30;99.90;;;;;;5033763;28;20193;-78
2024/01/03 06:55:27;;;;;;;18.27;11.00;;;4.30;99.90;;;;;;5033613;28;20253;-78
2024/01/03 06:58:17;;;;;;;20.93;12.53;;;4.40;99.90;;;;;;5033032;28;20288;-79
2024/01/03 07:01:05;;;;;;;18.03;11.30;;;4.40;99.90;;;;;;5034063;28;20576;-78
2024/01/03 07:03:52;;;;;;;20.00;12.13;;;4.40;99.90;;;;;;5033544;28;20270;-78
2024/01/03 07:06:40;;;;;;;21.87;12.73;;;4.40;99.90;;;;;;5033065;28;20713;-79
2024/01/03 07:09:27;;;;;;;21.57;12.50;;;4.40;99.90;;;;;;5032966;28;20271;-79
2024/01/03 07:12:15;;;;;;;20.23;12.83;;;4.40;99.90;;;;;;5032199;28;20218;-78
2024/01/03 07:15:06;;;;;;;20.97;12.03;;;4.40;99.90;;;;;;5032176;28;20286;-78
2024/01/03 07:17:58;;;;;;;20.73;12.63;;;4.40;99.90;;;;;;5032691;28;20227;-79
2024/01/03 07:20:58;;;;;;;19.90;12.10;;;4.50;99.90;;;;;;5021203;28;20208;-78
2024/01/03 07:23:49;;;;;;;19.50;12.57;;;4.40;99.90;;;;;;5034198;28;20223;-79
2024/01/03 07:26:39;;;;;;;20.80;12.13;;;4.50;99.90;;;;;;5033225;28;20279;-78
2024/01/03 07:29:27;;;;;;;21.07;12.70;;;4.50;99.90;;;;;;5033175;28;20198;-73
2024/01/03 07:32:14;;;;;;;20.40;12.10;;;4.50;99.90;;;;;;5032824;28;20197;-72
2024/01/03 07:35:05;;;;;;;21.57;12.73;;;4.50;99.90;;;;;;5033391;28;20688;-73
2024/01/03 07:37:54;;;;;;;20.93;12.90;;;4.50;99.90;;;;;;5032159;28;20211;-75
2024/01/03 07:40:41;;;;;;;22.27;13.00;;;4.50;99.90;;;;;;5032205;28;20210;-73
2024/01/03 07:43:29;;;;;;;21.40;12.60;;;4.50;99.90;;;;;;5032408;28;20662;-72
2024/01/03 07:46:17;;;;;;;24.23;13.10;;;4.50;99.90;;;;;;5032922;28;20212;-74
2024/01/03 07:49:05;;;;;;;23.20;13.30;;;4.60;99.90;;;;;;5032172;28;20572;-73
2024/01/03 07:51:53;;;;;;;21.87;13.60;;;4.60;99.90;;;;;;5032107;28;20749;-72
2024/01/03 07:54:40;;;;;;;22.93;13.33;;;4.60;99.90;;;;;;5033827;28;20790;-73
2024/01/03 07:57:27;;;;;;;21.73;13.50;;;4.60;99.90;;;;;;5032414;28;20691;-72
2024/01/03 08:00:15;;;;;;;21.60;13.30;;;4.60;99.90;;;;;;5032557;28;20228;-72
2024/01/03 08:03:04;;;;;;;22.43;13.63;;;4.60;99.90;;;;;;5033000;28;20661;-73
2024/01/03 08:05:53;;;;;;;23.20;13.60;;;4.60;99.90;;;;;;5031928;28;20591;-72
2024/01/03 08:08:40;;;;;;;22.50;13.73;;;4.60;99.90;;;;;;5031338;28;20195;-77
2024/01/03 08:11:28;;;;;;;22.70;14.63;;;4.60;99.90;;;;;;5032306;28;20216;-77
2024/01/03 08:14:16;;;;;;;22.13;14.20;;;4.60;99.90;;;;;;5032355;28;20568;-74
2024/01/03 08:17:03;;;;;;;23.57;14.20;;;4.60;99.90;;;;;;5031084;28;20333;-74
2024/01/03 08:19:50;;;;;;;20.13;13.27;;;4.70;99.90;;;;;;5033368;28;20609;-73
2024/01/03 08:22:38;;;;;;;21.90;13.43;;;4.70;99.90;;;;;;5032371;28;20188;-72
2024/01/03 08:25:25;;;;;;;22.33;13.87;;;4.70;99.90;;;;;;5034392;28;20705;-73
2024/01/03 08:28:12;;;;;;;20.43;12.97;;;4.80;99.90;;;;;;5035349;28;20337;-73
2024/01/03 08:31:00;;;;;;;21.90;13.20;;;4.80;99.90;;;;;;5034652;28;20210;-76
2024/01/03 08:33:47;;;;;;;19.13;12.67;;;4.80;99.90;;;;;;5035871;28;20289;-72
2024/01/03 08:36:43;;;;;;;21.00;11.80;;;4.90;99.90;;;;;;5036102;28;20220;-71
2024/01/03 08:39:30;;;;;;;22.00;12.23;;;4.90;99.90;;;;;;5035095;28;20195;-74
2024/01/03 08:42:18;;;;;;;21.50;12.47;;;5.00;99.90;;;;;;5035327;28;20218;-72
2024/01/03 08:45:05;;;;;;;21.63;12.90;;;5.00;99.90;;;;;;5035471;28;20289;-74
2024/01/03 08:47:53;;;;;;;20.17;12.40;;;5.00;99.90;;;;;;5035862;28;20196;-71
2024/01/03 08:50:43;;;;;;;19.53;12.33;;;5.00;99.90;;;;;;5035915;28;20257;-72
2024/01/03 08:53:32;;;;;;;19.67;12.17;;;5.00;99.90;;;;;;5036899;28;20271;-73
2024/01/03 08:56:20;;;;;;;21.37;12.30;;;4.90;99.90;;;;;;5035740;28;20223;-73
2024/01/03 08:59:07;;;;;;;20.90;12.50;;;5.00;99.90;;;;;;5035742;28;20210;-73
2024/01/03 09:01:58;;;;;;;18.70;12.13;;;5.00;99.90;;;;;;5036382;28;20327;-72
2024/01/03 09:04:45;;;;;;;20.47;12.47;;;5.00;99.90;;;;;;5035752;28;20570;-77
2024/01/03 09:07:33;;;;;;;18.57;11.80;;;5.00;99.90;;;;;;5035074;28;20668;-76
2024/01/03 09:10:20;;;;;;;20.80;12.63;;;5.00;99.90;;;;;;5035941;28;20669;-76
2024/01/03 09:13:08;;;;;;;23.13;13.27;;;5.00;99.90;;;;;;5034883;28;20691;-73
2024/01/03 09:15:55;;;;;;;19.23;12.50;;;5.00;99.90;;;;;;5036011;28;20200;-76
2024/01/03 09:18:43;;;;;;;18.60;11.93;;;5.10;99.90;;;;;;5036707;28;20659;-73
2024/01/03 09:21:31;;;;;;;18.30;11.50;;;5.20;99.90;;;;;;5034429;28;20193;-73
2024/01/03 09:24:18;;;;;;;18.40;11.43;;;5.10;99.90;;;;;;5035092;28;20277;-74
2024/01/03 09:27:06;;;;;;;19.20;11.43;;;5.10;99.90;;;;;;5035817;28;20634;-73
2024/01/03 09:29:53;;;;;;;18.37;11.80;;;5.10;99.90;;;;;;5034920;28;20560;-74
2024/01/03 09:32:41;;;;;;;20.60;11.70;;;5.20;99.90;;;;;;5034161;28;20676;-73
2024/01/03 09:35:28;;;;;;;19.67;11.17;;;5.20;99.90;;;;;;5033582;28;20206;-73
2024/01/03 09:38:16;;;;;;;19.63;11.50;;;5.20;99.90;;;;;;5032869;28;20216;-76
2024/01/03 09:41:03;;;;;;;17.37;10.50;;;5.20;99.90;;;;;;5033431;28;20575;-75
2024/01/03 09:43:52;;;;;;;20.83;11.33;;;5.20;99.90;;;;;;5034450;28;20656;-76
2024/01/03 09:46:42;;;;;;;20.13;11.17;;;5.20;99.90;;;;;;5033942;28;20197;-79
2024/01/03 09:49:30;;;;;;;16.97;10.47;;;5.30;99.90;;;;;;5031806;28;20671;-75
2024/01/03 09:52:17;;;;;;;17.77;10.83;;;5.30;99.90;;;;;;5034261;28;20196;-75
2024/01/03 09:55:05;;;;;;;17.20;11.00;;;5.30;99.90;;;;;;5033478;28;20238;-75
2024/01/03 09:57:54;;;;;;;20.17;11.23;;;5.40;99.90;;;;;;5032918;28;20222;-73
2024/01/03 10:00:41;;;;;;;19.37;10.63;;;5.40;99.90;;;;;;5034088;28;20258;-76
2024/01/03 10:03:29;;;;;;;17.47;10.90;;;5.40;99.90;;;;;;5034118;28;20198;-75
2024/01/03 10:06:16;;;;;;;15.70;10.30;;;5.50;99.90;;;;;;5033939;28;20309;-74
2024/01/03 10:09:11;;;;;;;14.40;9.67;;;5.50;99.90;;;;;;5033933;28;20580;-75
2024/01/03 10:11:58;;;;;;;20.63;10.27;;;5.40;99.90;;;;;;5034336;28;20672;-78
2024/01/03 10:14:46;;;;;;;17.47;10.67;;;5.50;99.90;;;;;;5034422;28;20668;-76
2024/01/03 10:17:33;;;;;;;16.97;10.27;;;5.50;99.90;;;;;;5034370;28;20224;-76
2024/01/03 10:20:28;;;;;;;16.77;10.50;;;5.50;99.90;;;;;;5034203;28;20671;-74
2024/01/03 10:23:16;;;;;;;18.47;10.90;;;5.60;99.90;;;;;;5035340;28;20202;-76
2024/01/03 10:26:04;;;;;;;15.90;10.37;;;5.60;99.90;;;;;;5033477;28;20219;-75
2024/01/03 10:29:11;;;;;;;16.20;10.43;;;5.70;99.90;;;;;;5032560;28;20576;-74
2024/01/03 10:31:58;;;;;;;16.30;10.80;;;5.60;99.90;;;;;;5033589;28;20679;-74
2024/01/03 10:34:46;;;;;;;24.70;11.20;;;5.60;99.90;;;;;;5034062;28;20203;-74
2024/01/03 10:37:33;;;;;;;15.50;10.27;;;5.60;99.90;;;;;;5033821;28;20297;-78
2024/01/03 10:40:22;;;;;;;16.10;10.03;;;5.60;99.90;;;;;;5033809;28;20569;-75
2024/01/03 10:43:09;;;;;;;17.90;11.07;;;5.50;99.90;;;;;;5033204;28;20196;-75
2024/01/03 10:45:57;;;;;;;18.40;10.93;;;5.60;99.90;;;;;;5033402;28;20216;-74
2024/01/03 10:48:44;;;;;;;18.83;10.83;;;5.70;99.90;;;;;;5033930;28;20204;-74
2024/01/03 10:51:39;;;;;;;17.30;10.70;;;5.80;99.90;;;;;;5032900;28;20198;-73
2024/01/03 10:54:30;;;;;;;19.37;10.60;;;5.70;99.90;;;;;;5034707;28;20230;-76
2024/01/03 10:57:19;;;;;;;16.40;10.60;;;5.80;99.90;;;;;;5033517;28;20271;-75
2024/01/03 11:00:20;;;;;;;18.87;11.50;;;5.70;99.90;;;;;;5033427;28;20725;-74
2024/01/03 11:03:31;;;;;;;16.57;10.70;;;5.80;99.90;;;;;;5033025;28;20635;-75
2024/01/03 11:06:38;;;;;;;16.87;10.63;;;5.80;99.90;;;;;;5032643;28;20238;-73
2024/01/03 11:09:26;;;;;;;18.77;10.80;;;5.90;99.90;;;;;;5032044;28;20196;-75
2024/01/03 11:12:14;;;;;;;17.27;10.77;;;5.80;99.90;;;;;;5034260;28;20593;-74
2024/01/03 11:15:25;;;;;;;19.00;11.23;;;5.80;99.90;;;;;;5033239;28;20204;-71
2024/01/03 11:18:41;;;;;;;17.83;11.10;;;5.80;99.90;;;;;;5033597;28;20232;-73
2024/01/03 11:21:34;;;;;;;18.37;11.17;;;5.90;99.90;;;;;;5032081;28;20240;-75
2024/01/03 11:24:22;;;;;;;21.43;11.63;;;5.90;99.90;;;;;;5032572;28;20216;-74
2024/01/03 11:27:17;;;;;;;20.10;11.87;;;5.90;99.90;;;;;;5031671;28;20273;-74
2024/01/03 11:30:27;;;;;;;21.80;12.63;;;5.90;99.90;;;;;;5032931;28;20260;-76
2024/01/03 11:33:29;;;;;;;18.33;11.80;;;6.00;99.90;;;;;;5034036;28;20315;-75
2024/01/03 11:36:44;;;;;;;24.43;13.03;;;6.10;99.90;;;;;;5033007;28;20197;-74
2024/01/03 11:39:43;;;;;;;19.43;11.93;;;6.20;99.90;;;;;;5032624;28;20193;-74
2024/01/03 11:42:33;;;;;;;20.90;12.33;;;6.30;99.90;;;;;;5032178;28;20236;-74
2024/01/03 11:45:22;;;;;;;21.77;12.43;;;6.40;99.90;;;;;;5032585;28;20636;-73
2024/01/03 11:48:10;;;;;;;18.60;11.50;;;6.50;99.90;;;;;;5046236;28;20206;-75
2024/01/03 11:50:58;;;;;;;20.73;10.93;;;6.60;99.90;;;;;;5032063;28;20575;-75
2024/01/03 11:53:45;;;;;;;21.23;11.87;;;6.70;99.90;;;;;;5032088;28;20640;-75
2024/01/03 11:56:33;;;;;;;18.80;10.73;;;6.80;99.90;;;;;;5031150;28;20209;-77
2024/01/03 11:59:20;;;;;;;17.00;10.37;;;6.90;99.90;;;;;;5031834;28;20192;-76
2024/01/03 12:02:12;;;;;;;17.43;10.27;;;7.00;99.90;;;;;;5032643;28;20204;-75
2024/01/03 12:05:07;;;;;;;17.33;9.70;;;7.20;99.90;;;;;;5032695;28;20201;-75
2024/01/03 12:07:56;;;;;;;17.90;11.20;;;7.20;99.90;;;;;;5032032;28;20343;-75
2024/01/03 12:10:44;;;;;;;19.73;11.20;;;7.40;99.90;;;;;;5032881;28;20201;-74
2024/01/03 12:13:31;;;;;;;15.53;9.03;;;7.50;99.90;;;;;;5031256;28;20201;-75
2024/01/03 12:16:19;;;;;;;13.17;8.00;;;7.50;99.90;;;;;;5031617;28;20273;-76
2024/01/03 12:19:06;;;;;;;12.13;7.37;;;7.60;99.90;;;;;;5032085;28;20230;-74
2024/01/03 12:21:56;;;;;;;11.53;6.50;;;7.80;99.90;;;;;;5032220;28;20468;-74
2024/01/03 12:24:44;;;;;;;9.63;5.77;;;7.90;99.90;;;;;;5032310;28;20194;-74
2024/01/03 12:27:33;;;;;;;8.80;5.70;;;8.10;99.90;;;;;;5032669;28;20209;-74
2024/01/03 12:30:21;;;;;;;9.20;4.90;;;8.10;99.90;;;;;;5031099;28;20340;-75
2024/01/03 12:33:12;;;;;;;10.33;4.10;;;8.20;99.90;;;;;;5031160;28;20204;-74
2024/01/03 12:36:05;;;;;;;9.67;3.80;;;8.40;99.90;;;;;;5031027;28;20210;-75
2024/01/03 12:38:59;;;;;;;7.37;3.70;;;8.40;99.90;;;;;;5032012;28;20314;-75
2024/01/03 12:41:47;;;;;;;7.93;3.33;;;8.50;99.90;;;;;;5031938;28;20207;-74
2024/01/03 12:44:39;;;;;;;7.07;3.83;;;8.60;99.90;;;;;;5031563;28;20202;-76
2024/01/03 12:47:27;;;;;;;8.93;3.53;;;8.60;99.90;;;;;;5033263;28;20199;-76
2024/01/03 12:50:15;;;;;;;6.67;3.30;;;8.60;99.90;;;;;;5032641;28;20205;-74
2024/01/03 12:53:02;;;;;;;6.57;3.40;;;8.60;99.90;;;;;;5031004;28;20721;-75
2024/01/03 12:55:50;;;;;;;6.40;3.37;;;8.50;99.90;;;;;;5031294;28;20197;-75
2024/01/03 12:58:37;;;;;;;6.83;3.60;;;8.50;99.90;;;;;;5031239;28;20304;-73
2024/01/03 13:01:24;;;;;;;9.93;3.80;;;8.40;99.90;;;;;;5031272;28;20285;-73
2024/01/03 13:04:12;;;;;;;6.10;3.40;;;8.40;99.90;;;;;;5031231;28;20195;-73
2024/01/03 13:07:00;;;;;;;6.27;3.77;;;8.40;99.90;;;;;;5031426;28;20246;-76
2024/01/03 13:09:48;;;;;;;6.07;3.47;;;8.40;99.90;;;;;;5032633;28;20281;-76
2024/01/03 13:12:36;;;;;;;7.90;3.60;;;8.40;99.90;;;;;;5033161;28;20746;-73
2024/01/03 13:15:24;;;;;;;7.43;3.57;;;8.40;99.90;;;;;;5036029;28;20194;-79
2024/01/03 13:18:11;;;;;;;9.13;4.23;;;8.30;99.90;;;;;;5035426;28;20218;-73
2024/01/03 13:20:59;;;;;;;6.87;3.70;;;8.30;99.90;;;;;;5034416;28;20199;-73
2024/01/03 13:23:46;;;;;;;7.60;3.50;;;8.30;99.90;;;;;;5035295;28;20194;-74
2024/01/03 13:26:34;;;;;;;8.73;4.20;;;8.30;99.90;;;;;;5034663;28;20297;-73
2024/01/03 13:29:21;;;;;;;10.47;3.63;;;8.30;99.90;;;;;;5033665;28;20198;-73
2024/01/03 13:32:11;;;;;;;8.23;3.50;;;8.30;99.90;;;;;;5035150;28;20199;-72
2024/01/03 13:35:00;;;;;;;8.77;3.90;;;8.30;99.90;;;;;;5035062;28;20202;-74
2024/01/03 13:37:48;;;;;;;7.40;3.37;;;8.30;99.90;;;;;;5035512;28;20222;-73
2024/01/03 13:40:36;;;;;;;9.87;3.67;;;8.30;99.90;;;;;;5034565;28;20242;-72
2024/01/03 13:43:24;;;;;;;9.40;3.60;;;8.30;99.90;;;;;;5035556;28;20196;-74
2024/01/03 13:46:13;;;;;;;7.50;3.40;;;8.30;99.90;;;;;;5034846;28;20199;-72
2024/01/03 13:49:00;;;;;;;8.67;3.67;;;8.30;99.90;;;;;;5034834;28;20195;-73
2024/01/03 13:51:51;;;;;;;6.37;3.50;;;8.30;99.90;;;;;;5033823;28;20194;-76
2024/01/03 13:54:38;;;;;;;8.30;3.30;;;8.30;99.90;;;;;;5033270;28;20249;-75
2024/01/03 13:57:26;;;;;;;7.00;3.23;;;8.30;99.90;;;;;;5034602;28;20213;-75
2024/01/03 14:00:14;;;;;;;5.67;2.83;;;8.30;99.90;;;;;;5034779;28;20198;-75
2024/01/03 14:03:04;;;;;;;5.67;3.00;;;8.20;99.90;;;;;;5033554;28;20207;-75
2024/01/03 14:05:51;;;;;;;7.53;3.03;;;8.20;99.90;;;;;;5035501;28;20241;-76
2024/01/03 14:08:41;;;;;;;7.00;3.03;;;8.20;99.90;;;;;;5035193;28;20202;-76
2024/01/03 14:11:29;;;;;;;7.77;2.87;;;8.20;99.90;;;;;;5035164;28;20225;-77
2024/01/03 14:14:16;;;;;;;5.03;2.67;;;8.30;99.90;;;;;;5036311;28;20243;-76
2024/01/03 14:17:05;;;;;;;8.97;3.10;;;8.20;99.90;;;;;;5033744;28;20672;-72
2024/01/03 14:19:53;;;;;;;6.77;3.00;;;8.20;99.90;;;;;;5032778;28;20193;-76
2024/01/03 14:22:42;;;;;;;5.87;2.80;;;8.20;99.90;;;;;;5034785;28;20194;-75
2024/01/03 14:25:30;;;;;;;5.90;3.00;;;8.20;99.90;;;;;;5034105;28;20201;-73
2024/01/03 14:28:20;;;;;;;10.13;3.13;;;8.20;99.90;;;;;;5033098;28;20202;-72
2024/01/03 14:31:08;;;;;;;6.17;2.70;;;8.20;99.90;;;;;;5034835;28;20199;-73